Time;durP1;ratioP1;P1;durP2;ratioP2;P2;SDS_P1;SDS_P2;PMS_P1;PMS_P2;Temp;Humidity;BMP_temperature;BMP_pressure;BME280_temperature;BME280_humidity;BME280_pressure;Samples;Min_cycle;Max_cycle;Signal;HPM_P1;HPM_P2
2022/07/12 00:01:44;;;;;;;0.70;0.70;;;19.70;99.90;;;;;;5054340;28;20258;-62
2022/07/12 00:04:11;;;;;;;0.70;0.70;;;19.50;99.90;;;;;;5054190;28;20196;-62
2022/07/12 00:06:40;;;;;;;0.75;0.70;;;19.40;99.90;;;;;;5057235;28;20286;-64
2022/07/12 00:09:06;;;;;;;0.60;0.60;;;19.40;99.90;;;;;;5044753;28;20296;-65
2022/07/12 00:11:35;;;;;;;0.70;0.70;;;19.30;99.90;;;;;;5052250;28;20267;-62
2022/07/12 00:14:02;;;;;;;0.80;0.80;;;19.20;99.90;;;;;;5047114;28;20202;-65
2022/07/12 00:16:29;;;;;;;0.73;0.73;;;19.10;99.90;;;;;;5051442;28;20204;-65
2022/07/12 00:18:56;;;;;;;0.70;0.70;;;19.00;99.90;;;;;;5050362;28;20314;-63
2022/07/12 00:21:23;;;;;;;0.70;0.70;;;18.90;99.90;;;;;;5051145;28;20224;-63
2022/07/12 00:23:51;;;;;;;0.85;0.80;;;18.90;99.90;;;;;;5051246;28;20227;-64
2022/07/12 00:26:18;;;;;;;0.88;0.88;;;18.90;99.90;;;;;;5050743;28;20624;-63
2022/07/12 00:28:49;;;;;;;0.70;0.70;;;18.80;99.90;;;;;;5049846;28;20207;-63
2022/07/12 00:31:16;;;;;;;0.60;0.60;;;18.70;99.90;;;;;;5051102;28;20236;-64
2022/07/12 00:33:43;;;;;;;0.70;0.70;;;18.60;99.90;;;;;;5051208;28;20206;-63
2022/07/12 00:36:10;;;;;;;0.70;0.70;;;18.50;99.90;;;;;;5050328;28;20214;-65
2022/07/12 00:38:37;;;;;;;0.70;0.70;;;18.50;99.90;;;;;;5049981;28;20231;-62
2022/07/12 00:41:05;;;;;;;0.80;0.80;;;18.50;99.90;;;;;;5050639;28;20306;-63
2022/07/12 00:43:32;;;;;;;0.70;0.70;;;18.40;99.90;;;;;;5050412;28;20256;-63
2022/07/12 00:45:59;;;;;;;0.60;0.60;;;18.30;99.90;;;;;;5050537;28;20211;-63
2022/07/12 00:48:26;;;;;;;0.63;0.63;;;18.30;99.90;;;;;;5051127;28;20283;-63
2022/07/12 00:50:53;;;;;;;0.77;0.77;;;18.30;99.90;;;;;;5050342;28;20230;-62
2022/07/12 00:53:23;;;;;;;0.70;0.70;;;18.40;99.90;;;;;;5051666;28;20204;-62
2022/07/12 00:55:53;;;;;;;0.50;0.50;;;18.40;99.90;;;;;;5051045;28;20200;-64
2022/07/12 00:58:22;;;;;;;0.50;0.50;;;18.50;99.90;;;;;;5045397;28;20702;-65
2022/07/12 01:00:50;;;;;;;0.75;0.75;;;18.50;99.90;;;;;;5050620;28;20252;-64
2022/07/12 01:03:17;;;;;;;0.90;0.90;;;18.50;99.90;;;;;;5051279;28;20200;-64
2022/07/12 01:05:45;;;;;;;1.38;0.73;;;18.50;99.90;;;;;;5051907;28;20226;-63
2022/07/12 01:08:13;;;;;;;0.70;0.70;;;18.40;99.90;;;;;;5051281;28;20200;-64
2022/07/12 01:10:41;;;;;;;0.60;0.60;;;18.30;99.90;;;;;;5050019;28;20220;-64
2022/07/12 01:13:08;;;;;;;0.73;0.73;;;18.30;99.90;;;;;;5048972;28;20250;-62
2022/07/12 01:15:37;;;;;;;0.80;0.80;;;18.20;99.90;;;;;;5051417;28;20291;-64
2022/07/12 01:18:05;;;;;;;0.68;0.68;;;18.20;99.90;;;;;;5059395;28;20296;-64
2022/07/12 01:20:33;;;;;;;0.65;0.65;;;18.30;99.90;;;;;;5050326;28;20219;-64
2022/07/12 01:23:03;;;;;;;0.65;0.65;;;18.40;99.90;;;;;;5054257;28;20673;-64
2022/07/12 01:25:30;;;;;;;0.63;0.63;;;18.40;99.90;;;;;;5054099;28;20200;-63
2022/07/12 01:27:57;;;;;;;0.70;0.70;;;18.50;99.90;;;;;;5054949;28;20254;-63
2022/07/12 01:30:24;;;;;;;0.70;0.70;;;18.50;99.90;;;;;;5048635;28;20256;-64
2022/07/12 01:32:52;;;;;;;1.25;0.73;;;18.50;99.90;;;;;;5051546;28;20286;-64
2022/07/12 01:35:19;;;;;;;0.70;0.70;;;18.40;99.90;;;;;;5050941;28;20238;-64
2022/07/12 01:37:46;;;;;;;0.70;0.70;;;18.50;99.90;;;;;;5044973;28;20847;-63
2022/07/12 01:40:16;;;;;;;0.70;0.70;;;18.50;99.90;;;;;;5048821;28;20220;-63
2022/07/12 01:42:44;;;;;;;0.80;0.80;;;18.50;99.90;;;;;;5053414;28;20287;-65
2022/07/12 01:45:11;;;;;;;0.70;0.70;;;18.50;99.90;;;;;;5045052;28;20235;-64
2022/07/12 01:47:38;;;;;;;0.80;0.80;;;18.50;99.90;;;;;;5052465;28;20662;-64
2022/07/12 01:50:07;;;;;;;0.77;0.77;;;18.40;99.90;;;;;;5050007;28;20293;-65
2022/07/12 01:52:34;;;;;;;0.70;0.70;;;18.40;99.90;;;;;;5052423;28;20304;-64
2022/07/12 01:55:01;;;;;;;0.80;0.80;;;18.30;99.90;;;;;;5052636;28;20206;-63
2022/07/12 01:57:32;;;;;;;0.63;0.63;;;18.30;99.90;;;;;;5052270;28;20291;-63
2022/07/12 02:00:00;;;;;;;0.80;0.80;;;18.30;99.90;;;;;;5041899;28;20739;-64
2022/07/12 02:02:27;;;;;;;0.80;0.80;;;18.30;99.90;;;;;;5052218;28;20208;-64
2022/07/12 02:04:55;;;;;;;0.70;0.70;;;18.30;99.90;;;;;;5052553;28;20204;-65
2022/07/12 02:07:23;;;;;;;0.65;0.65;;;18.30;99.90;;;;;;5052364;28;20204;-63
2022/07/12 02:09:51;;;;;;;2.08;0.80;;;18.30;99.90;;;;;;5050175;28;20200;-64
2022/07/12 02:12:17;;;;;;;0.88;0.88;;;18.40;99.90;;;;;;5050047;28;20681;-65
2022/07/12 02:14:46;;;;;;;0.73;0.73;;;18.40;99.90;;;;;;5050952;28;20206;-65
2022/07/12 02:17:12;;;;;;;1.00;0.73;;;18.40;99.90;;;;;;5051846;28;20586;-65
2022/07/12 02:19:39;;;;;;;0.82;0.82;;;18.40;99.90;;;;;;5049787;28;20316;-64
2022/07/12 02:22:07;;;;;;;0.80;0.80;;;18.30;99.90;;;;;;5051825;28;20224;-63
2022/07/12 02:24:33;;;;;;;0.73;0.73;;;18.20;99.90;;;;;;5052373;28;20300;-65
2022/07/12 02:27:00;;;;;;;0.80;0.80;;;18.30;99.90;;;;;;5053121;28;20223;-64
2022/07/12 02:29:27;;;;;;;0.70;0.70;;;18.30;99.90;;;;;;5047437;28;20287;-64
2022/07/12 02:31:55;;;;;;;0.80;0.80;;;18.30;99.90;;;;;;5049871;28;20680;-64
2022/07/12 02:34:22;;;;;;;0.77;0.77;;;18.20;99.90;;;;;;5047527;28;20244;-64
2022/07/12 02:36:49;;;;;;;0.90;0.90;;;18.20;99.90;;;;;;5052233;28;20251;-66
2022/07/12 02:39:16;;;;;;;0.82;0.82;;;18.10;99.90;;;;;;5048262;28;20226;-66
2022/07/12 02:41:43;;;;;;;0.80;0.80;;;18.10;99.90;;;;;;5052823;28;20228;-63
2022/07/12 02:44:10;;;;;;;0.80;0.80;;;18.10;99.90;;;;;;5047862;28;20197;-63
2022/07/12 02:46:36;;;;;;;0.70;0.70;;;18.00;99.90;;;;;;5048665;28;20754;-64
2022/07/12 02:49:05;;;;;;;0.80;0.80;;;17.90;99.90;;;;;;5050500;28;20254;-64
2022/07/12 02:51:32;;;;;;;0.70;0.70;;;17.80;99.90;;;;;;5050562;28;20234;-63
2022/07/12 02:53:59;;;;;;;0.90;0.90;;;17.90;99.90;;;;;;5051086;28;20279;-64
2022/07/12 02:56:26;;;;;;;0.80;0.80;;;17.90;99.90;;;;;;5051613;28;20204;-64
2022/07/12 02:58:53;;;;;;;0.70;0.70;;;17.80;99.90;;;;;;5050340;28;20253;-64
2022/07/12 03:01:20;;;;;;;0.70;0.70;;;17.70;99.90;;;;;;5049916;28;20688;-65
2022/07/12 03:03:47;;;;;;;0.85;0.85;;;17.70;99.90;;;;;;5052757;28;20222;-65
2022/07/12 03:06:15;;;;;;;0.80;0.80;;;17.60;99.90;;;;;;5054778;28;20200;-62
2022/07/12 03:08:42;;;;;;;0.80;0.80;;;17.50;99.90;;;;;;5051438;28;20208;-64
2022/07/12 03:11:09;;;;;;;0.80;0.80;;;17.40;99.90;;;;;;5051660;28;20227;-60
2022/07/12 03:13:36;;;;;;;0.80;0.80;;;17.50;99.90;;;;;;5049815;28;20207;-62
2022/07/12 03:16:03;;;;;;;0.90;0.90;;;17.80;99.90;;;;;;5051336;28;20279;-61
2022/07/12 03:18:30;;;;;;;1.00;1.00;;;18.00;99.90;;;;;;5051543;28;20683;-61
2022/07/12 03:20:57;;;;;;;0.80;0.80;;;18.30;99.90;;;;;;5047561;28;20232;-60
2022/07/12 03:23:26;;;;;;;0.70;0.70;;;18.40;99.90;;;;;;5051401;28;20383;-60
2022/07/12 03:25:52;;;;;;;1.35;1.25;;;18.60;99.90;;;;;;5051307;28;20208;-60
2022/07/12 03:28:19;;;;;;;1.50;0.88;;;18.60;99.90;;;;;;5051616;28;20200;-61
2022/07/12 03:30:46;;;;;;;1.75;0.98;;;18.60;99.90;;;;;;5044979;28;20702;-61
2022/07/12 03:33:13;;;;;;;0.80;0.80;;;18.60;99.90;;;;;;5050728;28;20211;-60
2022/07/12 03:35:40;;;;;;;0.80;0.80;;;18.70;99.90;;;;;;5054984;28;20286;-60
2022/07/12 03:38:07;;;;;;;0.80;0.80;;;18.70;99.90;;;;;;5054302;28;20725;-61
2022/07/12 03:40:35;;;;;;;0.73;0.73;;;18.80;99.90;;;;;;5048057;28;20235;-60
2022/07/12 03:43:02;;;;;;;0.77;0.77;;;18.70;99.90;;;;;;5041671;28;20629;-60
2022/07/12 03:45:29;;;;;;;0.90;0.90;;;18.80;99.90;;;;;;5050889;28;20199;-60
2022/07/12 03:47:55;;;;;;;0.88;0.88;;;18.90;99.90;;;;;;5039901;28;20775;-60
2022/07/12 03:50:23;;;;;;;0.90;0.90;;;18.90;99.90;;;;;;5044781;28;20220;-59
2022/07/12 03:52:51;;;;;;;1.30;1.20;;;18.90;99.90;;;;;;5040137;28;20204;-60
2022/07/12 03:55:17;;;;;;;0.90;0.90;;;18.90;99.90;;;;;;5039139;28;20683;-60
2022/07/12 03:57:46;;;;;;;0.88;0.88;;;18.80;99.90;;;;;;5040273;28;20210;-60
2022/07/12 04:00:14;;;;;;;1.53;1.10;;;18.80;99.90;;;;;;5047243;28;20274;-61
2022/07/12 04:02:41;;;;;;;1.00;1.00;;;18.80;99.90;;;;;;5045863;28;20242;-60
2022/07/12 04:05:10;;;;;;;0.85;0.80;;;18.80;99.90;;;;;;5053631;28;20228;-60
2022/07/12 04:07:37;;;;;;;0.80;0.80;;;18.90;99.90;;;;;;5053710;28;20642;-61
2022/07/12 04:10:05;;;;;;;0.80;0.80;;;18.90;99.90;;;;;;5043741;28;20195;-60
2022/07/12 04:12:32;;;;;;;3.90;1.00;;;19.00;99.90;;;;;;5047265;28;20285;-61
2022/07/12 04:15:00;;;;;;;0.80;0.80;;;18.90;99.90;;;;;;5043534;28;20296;-60
2022/07/12 04:17:27;;;;;;;0.90;0.90;;;18.90;99.90;;;;;;5050122;28;20303;-60
2022/07/12 04:19:53;;;;;;;1.00;1.00;;;18.90;99.90;;;;;;5046554;28;20230;-60
2022/07/12 04:22:20;;;;;;;1.07;1.00;;;18.90;99.90;;;;;;5050403;28;20200;-60
2022/07/12 04:24:47;;;;;;;0.80;0.80;;;18.90;99.90;;;;;;5050153;28;20299;-60
2022/07/12 04:27:14;;;;;;;0.90;0.90;;;18.90;99.90;;;;;;5044848;28;20228;-60
2022/07/12 04:29:41;;;;;;;1.40;0.90;;;18.90;99.90;;;;;;5046624;28;20204;-60
2022/07/12 04:32:09;;;;;;;0.90;0.90;;;18.90;99.90;;;;;;5049738;28;20331;-61
2022/07/12 04:34:36;;;;;;;0.70;0.70;;;19.00;99.90;;;;;;5044980;28;20204;-61
2022/07/12 04:37:03;;;;;;;0.70;0.70;;;18.90;99.90;;;;;;5051413;28;20269;-65
2022/07/12 04:39:30;;;;;;;0.80;0.80;;;19.00;99.90;;;;;;5047316;28;20806;-60
2022/07/12 04:41:57;;;;;;;0.80;0.80;;;18.90;99.90;;;;;;5049498;28;20915;-60
2022/07/12 04:44:24;;;;;;;0.60;0.60;;;18.90;99.90;;;;;;5041660;28;20210;-60
2022/07/12 04:46:50;;;;;;;0.90;0.90;;;18.80;99.90;;;;;;5042018;28;20214;-61
2022/07/12 04:49:19;;;;;;;0.80;0.80;;;18.70;99.90;;;;;;5046756;28;20283;-60
2022/07/12 04:51:46;;;;;;;0.80;0.80;;;18.70;99.90;;;;;;5047762;28;20314;-60
2022/07/12 04:54:13;;;;;;;0.90;0.90;;;18.70;99.90;;;;;;5049187;28;20206;-61
2022/07/12 04:56:39;;;;;;;0.90;0.90;;;18.70;99.90;;;;;;5044204;28;20208;-61
2022/07/12 04:59:06;;;;;;;0.75;0.75;;;18.60;99.90;;;;;;5052603;28;20718;-61
2022/07/12 05:01:33;;;;;;;0.90;0.90;;;18.70;99.90;;;;;;5053282;28;20251;-60
2022/07/12 05:04:00;;;;;;;1.00;1.00;;;18.80;99.90;;;;;;5053402;28;20644;-61
2022/07/12 05:06:29;;;;;;;0.70;0.70;;;18.90;99.90;;;;;;5052340;28;20616;-62
2022/07/12 05:08:56;;;;;;;1.00;1.00;;;19.00;99.90;;;;;;5050915;28;20206;-62
2022/07/12 05:11:22;;;;;;;1.23;0.80;;;18.90;99.90;;;;;;5047740;28;20713;-61
2022/07/12 05:13:49;;;;;;;0.77;0.77;;;18.90;99.90;;;;;;5047652;28;20196;-61
2022/07/12 05:16:16;;;;;;;0.85;0.85;;;18.80;99.90;;;;;;5047210;28;20214;-61
2022/07/12 05:18:43;;;;;;;0.70;0.70;;;18.90;99.90;;;;;;5052812;28;20306;-61
2022/07/12 05:21:10;;;;;;;0.90;0.90;;;19.00;99.90;;;;;;5048904;28;20259;-62
2022/07/12 05:23:38;;;;;;;0.93;0.93;;;19.10;99.90;;;;;;5051130;28;20204;-61
2022/07/12 05:26:05;;;;;;;0.70;0.70;;;19.20;99.90;;;;;;5053738;28;20685;-61
2022/07/12 05:28:33;;;;;;;0.82;0.82;;;19.30;99.90;;;;;;5050985;28;20371;-61
2022/07/12 05:31:00;;;;;;;0.90;0.90;;;19.50;99.90;;;;;;5045884;28;20227;-61
2022/07/12 05:33:26;;;;;;;0.90;0.90;;;19.70;99.90;;;;;;5051708;28;20215;-61
2022/07/12 05:35:53;;;;;;;1.00;1.00;;;19.70;99.90;;;;;;5053451;28;20199;-61
2022/07/12 05:38:20;;;;;;;0.82;0.82;;;19.80;99.90;;;;;;5053612;28;20216;-60
2022/07/12 05:40:49;;;;;;;1.00;1.00;;;20.00;99.90;;;;;;5051674;28;20318;-61
2022/07/12 05:43:16;;;;;;;0.90;0.90;;;19.90;99.90;;;;;;5053396;28;20204;-61
2022/07/12 05:45:43;;;;;;;1.10;1.10;;;20.00;99.90;;;;;;5045968;28;20337;-64
2022/07/12 05:48:10;;;;;;;1.13;1.10;;;20.20;99.90;;;;;;5050217;28;20234;-64
2022/07/12 05:50:37;;;;;;;1.00;1.00;;;20.20;99.90;;;;;;5051460;28;20216;-65
2022/07/12 05:55:50;;;;;;;0.80;0.80;;;20.00;99.90;;;;;;5062086;28;20210;-64
2022/07/12 05:58:18;;;;;;;1.00;1.00;;;20.10;99.90;;;;;;5048062;28;20369;-65
2022/07/12 06:00:46;;;;;;;1.00;1.00;;;20.00;99.90;;;;;;5054609;28;20230;-64
2022/07/12 06:03:13;;;;;;;1.00;1.00;;;19.90;99.90;;;;;;5055498;28;20227;-64
2022/07/12 06:05:40;;;;;;;0.98;0.98;;;19.90;99.90;;;;;;5055237;28;20319;-64
2022/07/12 06:08:07;;;;;;;1.08;1.08;;;20.00;99.90;;;;;;5049553;28;20211;-64
2022/07/12 06:10:34;;;;;;;1.00;1.00;;;20.10;99.90;;;;;;5048499;28;20303;-63
2022/07/12 06:13:03;;;;;;;0.88;0.88;;;20.20;99.90;;;;;;5053647;28;20210;-64
2022/07/12 06:15:29;;;;;;;1.00;1.00;;;20.20;99.90;;;;;;5053213;28;20214;-64
2022/07/12 06:17:57;;;;;;;1.30;1.02;;;20.30;99.90;;;;;;5049887;28;20204;-64
2022/07/12 06:20:24;;;;;;;0.95;0.95;;;20.40;99.90;;;;;;5050634;28;20686;-65
2022/07/12 06:22:51;;;;;;;1.10;1.10;;;20.60;99.90;;;;;;5052346;28;20304;-65
2022/07/12 06:25:18;;;;;;;0.80;0.80;;;20.80;99.90;;;;;;5047800;28;20207;-66
2022/07/12 06:27:47;;;;;;;0.98;0.98;;;20.80;99.90;;;;;;5050500;28;20659;-64
2022/07/12 06:30:16;;;;;;;0.98;0.98;;;20.90;99.90;;;;;;5045821;28;20204;-64
2022/07/12 06:32:44;;;;;;;0.93;0.93;;;21.00;99.90;;;;;;5046843;28;20575;-64
2022/07/12 06:35:11;;;;;;;0.90;0.90;;;21.10;99.90;;;;;;5053208;28;20196;-66
2022/07/12 06:37:38;;;;;;;1.50;1.00;;;21.10;99.90;;;;;;5050652;28;20666;-64
2022/07/12 06:40:07;;;;;;;3.13;1.08;;;21.20;99.90;;;;;;5047908;28;20694;-64
2022/07/12 06:42:34;;;;;;;0.90;0.90;;;21.30;99.90;;;;;;5047424;28;20230;-64
2022/07/12 06:45:01;;;;;;;1.00;1.00;;;21.40;99.90;;;;;;5049996;28;20200;-64
2022/07/12 06:47:29;;;;;;;1.00;1.00;;;21.50;99.90;;;;;;5048804;28;20295;-65
2022/07/12 06:49:56;;;;;;;1.20;1.02;;;21.50;99.90;;;;;;5045565;28;20208;-65
2022/07/12 06:52:23;;;;;;;1.00;1.00;;;21.70;99.90;;;;;;5050453;28;20204;-65
2022/07/12 06:54:50;;;;;;;1.10;1.10;;;21.70;99.90;;;;;;5049812;28;20730;-64
2022/07/12 06:57:17;;;;;;;1.00;1.00;;;21.80;99.90;;;;;;5052766;28;20207;-66
2022/07/12 06:59:44;;;;;;;1.05;1.00;;;21.90;99.90;;;;;;5052169;28;20208;-65
2022/07/12 07:02:11;;;;;;;0.70;0.70;;;22.00;99.90;;;;;;5045091;28;20859;-65
2022/07/12 07:04:39;;;;;;;1.00;1.00;;;22.10;99.90;;;;;;5051922;28;20291;-65
2022/07/12 07:07:06;;;;;;;1.02;0.90;;;22.20;99.90;;;;;;5052836;28;20207;-65
2022/07/12 07:09:33;;;;;;;0.90;0.90;;;22.20;99.90;;;;;;5051806;28;20204;-65
2022/07/12 07:12:00;;;;;;;1.20;1.20;;;22.40;99.90;;;;;;5046076;28;20244;-66
2022/07/12 07:14:28;;;;;;;1.00;1.00;;;22.40;99.90;;;;;;5047263;28;20208;-65
2022/07/12 07:16:54;;;;;;;1.27;1.20;;;22.20;99.90;;;;;;5049838;28;20662;-65
2022/07/12 07:19:22;;;;;;;0.98;0.98;;;22.40;99.90;;;;;;5047538;28;20295;-66
2022/07/12 07:21:52;;;;;;;0.90;0.90;;;22.50;99.90;;;;;;5056234;28;20238;-65
2022/07/12 07:24:18;;;;;;;0.90;0.90;;;22.50;99.90;;;;;;5053605;28;20196;-64
2022/07/12 07:26:45;;;;;;;1.00;1.00;;;22.40;99.90;;;;;;5055435;28;20246;-65
2022/07/12 07:31:56;;;;;;;1.00;1.00;;;22.50;99.90;;;;;;5056566;28;20252;-65
2022/07/12 07:34:25;;;;;;;1.00;1.00;;;22.60;99.90;;;;;;5055377;28;20288;-66
2022/07/12 07:36:53;;;;;;;1.00;1.00;;;22.70;99.90;;;;;;5055930;28;20250;-65
2022/07/12 07:39:20;;;;;;;0.90;0.90;;;22.80;99.90;;;;;;5050958;28;20211;-66
2022/07/12 07:41:47;;;;;;;1.00;1.00;;;22.90;99.90;;;;;;5053713;28;20227;-64
2022/07/12 07:44:14;;;;;;;0.90;0.90;;;23.10;99.90;;;;;;5047377;28;20288;-64
2022/07/12 07:46:41;;;;;;;0.98;0.98;;;23.20;99.90;;;;;;5043553;28;20208;-63
2022/07/12 07:49:08;;;;;;;0.98;0.98;;;23.20;99.90;;;;;;5044139;28;20287;-63
2022/07/12 07:51:35;;;;;;;0.90;0.90;;;23.30;99.90;;;;;;5051580;28;20307;-64
2022/07/12 07:54:03;;;;;;;0.95;0.95;;;23.30;99.90;;;;;;5051491;28;20208;-64
2022/07/12 07:56:30;;;;;;;0.90;0.90;;;23.50;99.90;;;;;;5044079;28;20595;-64
2022/07/12 07:58:57;;;;;;;1.10;1.10;;;23.70;99.90;;;;;;5039231;28;20208;-64
2022/07/12 08:01:42;;;;;;;0.95;0.95;;;23.60;99.90;;;;;;5050240;28;20244;-64
2022/07/12 08:04:09;;;;;;;0.88;0.88;;;23.70;99.90;;;;;;5050957;28;20208;-63
2022/07/12 08:06:36;;;;;;;0.90;0.90;;;23.80;99.90;;;;;;5035603;28;20291;-64
2022/07/12 08:09:05;;;;;;;0.93;0.93;;;23.90;99.90;;;;;;5044377;28;20299;-63
2022/07/12 08:11:32;;;;;;;1.00;1.00;;;24.00;99.90;;;;;;5042969;28;20220;-64
2022/07/12 08:13:59;;;;;;;0.80;0.80;;;24.00;99.90;;;;;;5049799;28;20284;-64
2022/07/12 08:16:26;;;;;;;0.85;0.85;;;23.90;99.90;;;;;;5055070;28;20212;-63
2022/07/12 08:18:53;;;;;;;0.80;0.80;;;23.90;99.90;;;;;;5053271;28;20204;-63
2022/07/12 08:21:20;;;;;;;1.58;0.88;;;23.90;99.90;;;;;;5052849;28;20794;-64
2022/07/12 08:23:47;;;;;;;0.80;0.80;;;24.00;99.90;;;;;;5049960;28;20234;-63
2022/07/12 08:26:16;;;;;;;0.90;0.90;;;24.00;99.90;;;;;;5051074;28;20196;-64
2022/07/12 08:28:43;;;;;;;0.95;0.95;;;24.00;99.90;;;;;;5039764;28;20208;-64
2022/07/12 08:31:10;;;;;;;2.33;1.55;;;24.20;99.90;;;;;;5049354;28;20224;-63
2022/07/12 08:33:37;;;;;;;0.80;0.80;;;24.30;99.90;;;;;;5049702;28;20204;-64
2022/07/12 08:36:04;;;;;;;0.80;0.80;;;24.50;99.90;;;;;;5038574;28;20637;-63
2022/07/12 08:38:33;;;;;;;0.63;0.63;;;24.70;99.90;;;;;;5051394;28;20289;-64
2022/07/12 08:41:00;;;;;;;0.90;0.90;;;24.70;99.90;;;;;;5049725;28;20726;-65
2022/07/12 08:43:28;;;;;;;0.68;0.68;;;24.80;99.90;;;;;;5051679;28;20207;-64
2022/07/12 08:45:55;;;;;;;0.80;0.80;;;24.80;99.90;;;;;;5051845;28;20230;-64
2022/07/12 08:48:22;;;;;;;1.15;1.05;;;25.00;99.90;;;;;;5051894;28;20223;-64
2022/07/12 08:51:02;;;;;;;0.80;0.80;;;25.10;99.90;;;;;;5051250;28;20284;-63
2022/07/12 08:53:29;;;;;;;0.70;0.70;;;25.20;99.90;;;;;;5049167;28;20200;-63
2022/07/12 08:55:56;;;;;;;0.80;0.80;;;25.10;99.90;;;;;;5051602;28;20300;-62
2022/07/12 08:58:22;;;;;;;0.90;0.90;;;25.30;99.90;;;;;;5049732;28;20282;-63
2022/07/12 09:00:51;;;;;;;0.60;0.60;;;25.50;99.90;;;;;;5048070;28;20834;-63
2022/07/12 09:03:19;;;;;;;0.80;0.80;;;25.70;99.90;;;;;;5054081;28;20224;-63
2022/07/12 09:05:52;;;;;;;0.75;0.75;;;25.80;99.90;;;;;;5054051;28;20295;-64
2022/07/12 09:08:24;;;;;;;0.77;0.77;;;25.80;99.90;;;;;;5055624;28;20211;-63
2022/07/12 09:10:57;;;;;;;0.80;0.80;;;25.90;99.90;;;;;;5053152;28;20258;-63
2022/07/12 09:13:50;;;;;;;0.70;0.70;;;26.20;99.90;;;;;;5052714;28;20227;-63
2022/07/12 09:16:19;;;;;;;0.60;0.60;;;26.40;99.90;;;;;;5051450;28;20199;-65
2022/07/12 09:18:47;;;;;;;0.70;0.70;;;26.40;99.90;;;;;;5053422;28;20199;-63
2022/07/12 09:21:24;;;;;;;0.55;0.55;;;26.20;99.90;;;;;;5051376;28;20259;-63
2022/07/12 09:23:56;;;;;;;0.55;0.55;;;26.30;99.90;;;;;;5043346;28;20291;-65
2022/07/12 09:26:23;;;;;;;0.68;0.68;;;26.30;99.90;;;;;;5049106;28;20200;-63
2022/07/12 09:28:52;;;;;;;0.60;0.60;;;26.30;99.90;;;;;;5040342;28;20284;-63
2022/07/12 09:31:20;;;;;;;0.65;0.50;;;26.30;99.90;;;;;;5051976;28;20243;-63
2022/07/12 09:36:57;;;;;;;0.50;0.50;;;26.30;99.90;;;;;;5053780;28;20211;-63
2022/07/12 09:39:25;;;;;;;0.50;0.50;;;26.30;99.90;;;;;;5042776;28;20658;-63
2022/07/12 09:41:54;;;;;;;0.65;0.65;;;26.10;99.90;;;;;;5054384;28;20228;-65
2022/07/12 09:44:21;;;;;;;1.98;0.70;;;26.30;99.90;;;;;;5054786;28;20214;-63
2022/07/12 09:46:51;;;;;;;0.70;0.70;;;26.50;99.90;;;;;;5053777;28;20300;-64
2022/07/12 09:49:19;;;;;;;0.70;0.70;;;26.50;99.90;;;;;;5047260;28;20206;-64
2022/07/12 09:51:46;;;;;;;0.50;0.50;;;26.60;99.90;;;;;;5054284;28;20219;-64
2022/07/12 09:54:20;;;;;;;1.65;0.70;;;26.80;99.90;;;;;;5051271;28;20204;-63
2022/07/12 09:56:53;;;;;;;0.70;0.57;;;27.00;99.90;;;;;;5053902;28;20604;-63
2022/07/12 09:59:24;;;;;;;0.68;0.68;;;27.20;99.90;;;;;;5048172;28;20200;-64
2022/07/12 10:01:55;;;;;;;2.35;0.77;;;27.20;99.90;;;;;;5051133;28;20224;-64
2022/07/12 10:04:23;;;;;;;0.60;0.60;;;27.30;99.90;;;;;;5052094;28;20224;-63
2022/07/12 10:06:51;;;;;;;1.90;0.70;;;27.10;99.90;;;;;;5051425;28;20219;-64
2022/07/12 10:09:18;;;;;;;0.57;0.57;;;27.00;99.90;;;;;;5045335;28;20870;-63
2022/07/12 10:11:46;;;;;;;0.70;0.70;;;27.10;99.90;;;;;;5051988;28;20222;-64
2022/07/12 10:14:13;;;;;;;0.50;0.50;;;27.30;99.90;;;;;;5052962;28;20204;-63
2022/07/12 10:16:43;;;;;;;0.43;0.43;;;27.10;99.90;;;;;;5050446;28;20698;-63
2022/07/12 10:19:25;;;;;;;0.55;0.55;;;27.10;99.90;;;;;;5050818;28;20204;-63
2022/07/12 10:21:53;;;;;;;1.08;0.70;;;27.20;99.90;;;;;;5046355;28;20680;-65
2022/07/12 10:24:55;;;;;;;0.60;0.60;;;27.30;99.90;;;;;;5052475;28;20206;-64
2022/07/12 10:27:37;;;;;;;1.08;0.63;;;27.40;99.90;;;;;;5049977;28;20629;-65
2022/07/12 10:30:15;;;;;;;0.50;0.50;;;27.30;99.90;;;;;;5042111;28;20586;-65
2022/07/12 10:32:44;;;;;;;0.60;0.60;;;27.40;99.90;;;;;;5052731;28;20689;-64
2022/07/12 10:35:16;;;;;;;0.50;0.50;;;27.50;99.90;;;;;;5053397;28;20203;-65
2022/07/12 10:38:21;;;;;;;0.50;0.50;;;27.40;99.90;;;;;;5052242;28;20291;-63
2022/07/12 10:40:50;;;;;;;1.13;0.70;;;27.30;99.90;;;;;;5048444;28;20224;-64
2022/07/12 10:44:04;;;;;;;0.52;0.52;;;27.20;99.90;;;;;;5052365;28;20718;-64
2022/07/12 10:46:20;;;;;;;0.52;0.52;;;27.30;99.90;;;;;;5049205;28;20257;-64
2022/07/12 10:48:47;;;;;;;0.85;0.50;;;27.20;99.90;;;;;;5043857;28;20302;-64
2022/07/12 10:51:16;;;;;;;0.63;0.63;;;27.30;99.90;;;;;;5045230;28;20232;-64
2022/07/12 10:53:45;;;;;;;0.60;0.60;;;27.40;99.90;;;;;;5045562;28;20209;-65
2022/07/12 10:56:17;;;;;;;0.63;0.63;;;27.50;99.90;;;;;;5052540;28;20235;-64
2022/07/12 10:58:46;;;;;;;0.63;0.63;;;27.50;99.90;;;;;;5052407;28;20200;-64
2022/07/12 11:01:14;;;;;;;0.70;0.70;;;27.40;99.90;;;;;;5037178;28;20220;-64
2022/07/12 11:03:44;;;;;;;0.45;0.45;;;27.60;99.90;;;;;;5046855;28;20370;-63
2022/07/12 11:06:13;;;;;;;0.80;0.80;;;27.80;99.90;;;;;;5045240;28;20231;-64
2022/07/12 11:08:56;;;;;;;0.50;0.50;;;28.00;99.90;;;;;;5046349;28;20638;-62
2022/07/12 11:11:25;;;;;;;0.60;0.60;;;28.10;99.90;;;;;;5046503;28;20227;-64
2022/07/12 11:13:53;;;;;;;0.75;0.73;;;28.00;99.90;;;;;;5049138;28;20204;-64
2022/07/12 11:16:20;;;;;;;0.70;0.70;;;27.80;99.90;;;;;;5050730;28;20200;-64
2022/07/12 11:18:47;;;;;;;0.50;0.50;;;27.80;99.90;;;;;;5049821;28;20368;-63
2022/07/12 11:21:14;;;;;;;0.70;0.70;;;27.70;99.90;;;;;;5049726;28;20319;-64
2022/07/12 11:23:44;;;;;;;1.48;0.60;;;27.80;99.90;;;;;;5044375;28;20302;-65
2022/07/12 11:26:14;;;;;;;0.50;0.50;;;28.00;99.90;;;;;;5052099;28;20719;-65
2022/07/12 11:28:42;;;;;;;0.60;0.60;;;28.30;99.90;;;;;;5050306;28;20200;-63
2022/07/12 11:31:11;;;;;;;0.70;0.70;;;28.40;99.90;;;;;;5046593;28;20228;-64
2022/07/12 11:33:40;;;;;;;0.60;0.60;;;28.10;99.90;;;;;;5048858;28;20200;-65
2022/07/12 11:36:09;;;;;;;0.52;0.52;;;28.20;99.90;;;;;;5058965;28;20238;-64
2022/07/12 11:38:38;;;;;;;0.63;0.63;;;28.30;99.90;;;;;;5055476;28;20200;-63
2022/07/12 11:41:06;;;;;;;0.70;0.60;;;28.40;99.90;;;;;;5048968;28;20250;-64
2022/07/12 11:43:36;;;;;;;0.50;0.50;;;28.60;99.90;;;;;;5045526;28;20335;-64
2022/07/12 11:46:04;;;;;;;0.70;0.70;;;28.70;99.90;;;;;;5042361;28;20300;-64
2022/07/12 11:48:32;;;;;;;0.60;0.60;;;28.70;99.90;;;;;;5052456;28;20204;-64
2022/07/12 11:51:03;;;;;;;0.50;0.50;;;28.60;99.90;;;;;;5043705;28;20312;-64
2022/07/12 11:53:30;;;;;;;0.60;0.60;;;28.70;99.90;;;;;;5050101;28;20196;-65
2022/07/12 11:55:59;;;;;;;0.60;0.60;;;28.50;99.90;;;;;;5059893;28;20208;-65
2022/07/12 11:58:28;;;;;;;0.40;0.40;;;28.40;99.90;;;;;;5062441;28;20335;-64
2022/07/12 12:00:57;;;;;;;0.82;0.43;;;28.40;99.90;;;;;;5053026;28;20678;-63
2022/07/12 12:03:25;;;;;;;0.75;0.75;;;28.50;99.90;;;;;;5050471;28;20310;-63
2022/07/12 12:05:53;;;;;;;0.52;0.52;;;28.50;99.90;;;;;;5055271;28;20200;-64
2022/07/12 12:08:20;;;;;;;2.90;0.73;;;28.50;99.90;;;;;;5051224;28;20754;-64
2022/07/12 12:10:55;;;;;;;0.60;0.60;;;28.40;99.90;;;;;;5046635;28;20307;-64
2022/07/12 12:13:21;;;;;;;0.60;0.50;;;28.50;99.90;;;;;;5043521;28;20200;-64
2022/07/12 12:15:52;;;;;;;0.73;0.70;;;28.40;99.90;;;;;;5046365;28;20212;-65
2022/07/12 12:18:32;;;;;;;0.38;0.38;;;28.50;99.90;;;;;;5045247;28;20568;-63
2022/07/12 12:21:00;;;;;;;0.50;0.50;;;28.60;99.90;;;;;;5042827;28;20219;-63
2022/07/12 12:23:27;;;;;;;0.50;0.50;;;28.80;99.90;;;;;;5044928;28;20224;-63
2022/07/12 12:26:09;;;;;;;0.98;0.73;;;29.00;99.90;;;;;;5038243;28;20292;-63
2022/07/12 12:28:44;;;;;;;0.60;0.60;;;29.20;99.90;;;;;;5045013;28;20275;-64
2022/07/12 12:31:12;;;;;;;0.60;0.60;;;29.20;99.90;;;;;;5040579;28;20239;-63
2022/07/12 12:33:43;;;;;;;2.35;0.65;;;29.00;99.90;;;;;;5048377;28;20630;-63
2022/07/12 12:36:18;;;;;;;0.40;0.40;;;29.10;99.90;;;;;;5047608;28;20231;-64
2022/07/12 12:38:45;;;;;;;0.90;0.50;;;29.10;99.90;;;;;;5042316;28;20291;-65
2022/07/12 12:41:13;;;;;;;0.50;0.50;;;29.00;99.90;;;;;;5044138;28;20783;-64
2022/07/12 12:43:41;;;;;;;0.52;0.52;;;29.20;99.90;;;;;;5045368;28;20356;-64
2022/07/12 12:46:13;;;;;;;0.88;0.50;;;29.20;99.90;;;;;;5042581;28;20211;-63
2022/07/12 12:48:48;;;;;;;0.55;0.55;;;29.40;99.90;;;;;;5044880;28;20206;-65
2022/07/12 12:51:19;;;;;;;0.98;0.52;;;29.30;99.90;;;;;;5041189;28;20315;-64
2022/07/12 12:54:02;;;;;;;0.68;0.68;;;29.20;99.90;;;;;;5040940;28;20245;-64
2022/07/12 12:56:29;;;;;;;0.50;0.50;;;29.20;99.90;;;;;;5041504;28;20269;-63
2022/07/12 12:58:59;;;;;;;1.27;0.60;;;29.40;99.90;;;;;;5049046;28;20240;-65
2022/07/12 13:01:35;;;;;;;0.63;0.63;;;29.20;99.90;;;;;;5038577;28;20256;-63
2022/07/12 13:04:03;;;;;;;0.43;0.40;;;29.10;99.90;;;;;;5044818;28;20235;-65